Time;durP1;ratioP1;P1;durP2;ratioP2;P2;SDS_P1;SDS_P2;PMS_P1;PMS_P2;Temp;Humidity;BMP_temperature;BMP_pressure;BME280_temperature;BME280_humidity;BME280_pressure;Samples;Min_cycle;Max_cycle;Signal;HPM_P1;HPM_P2
2022/06/30 00:01:33;;;;;;;;;;;19.50;99.90;;;;;;6190768;23;20315;-71
2022/06/30 00:03:59;;;;;;;6.82;4.05;;;19.50;99.90;;;;;;6216757;23;20210;-70
2022/06/30 00:06:25;;;;;;;;;;;19.40;99.90;;;;;;6190714;23;20016;-72
2022/06/30 00:08:52;;;;;;;7.78;5.00;;;19.40;99.90;;;;;;6216852;23;20240;-71
2022/06/30 00:11:18;;;;;;;6.20;4.68;;;19.40;99.90;;;;;;6216613;23;20020;-71
2022/06/30 00:13:44;;;;;;;7.05;4.75;;;19.30;99.90;;;;;;6216556;23;20017;-73
2022/06/30 00:16:10;;;;;;;7.05;4.32;;;19.30;99.90;;;;;;6189923;23;20012;-71
2022/06/30 00:18:36;;;;;;;5.60;3.92;;;19.30;99.90;;;;;;6216463;23;20017;-70
2022/06/30 00:21:03;;;;;;;7.28;4.50;;;19.20;99.90;;;;;;6189620;23;20012;-71
2022/06/30 00:23:29;;;;;;;8.60;5.18;;;19.20;99.90;;;;;;6164690;23;20013;-71
2022/06/30 00:25:55;;;;;;;;;;;19.20;99.90;;;;;;6216897;23;20489;-71
2022/06/30 00:28:21;;;;;;;7.25;5.10;;;19.20;99.90;;;;;;6216504;23;19916;-70
2022/06/30 00:30:48;;;;;;;6.18;4.43;;;19.20;99.90;;;;;;6216464;23;20013;-72
2022/06/30 00:33:14;;;;;;;7.57;4.68;;;19.20;99.90;;;;;;6216176;23;20087;-73
2022/06/30 00:35:39;;;;;;;6.03;4.70;;;19.20;99.90;;;;;;6216325;23;20013;-71
2022/06/30 00:38:05;;;;;;;6.88;4.50;;;19.20;99.90;;;;;;6216339;23;20022;-71
2022/06/30 00:40:38;;;;;;;;;;;19.20;99.90;;;;;;6216757;23;20434;-72
2022/06/30 00:43:04;;;;;;;6.15;4.72;;;19.20;99.90;;;;;;6189687;23;19922;-72
2022/06/30 00:45:31;;;;;;;6.35;4.47;;;19.20;99.90;;;;;;6189474;23;20027;-71
2022/06/30 00:47:57;;;;;;;6.32;5.07;;;19.20;99.90;;;;;;6216084;23;20091;-71
2022/06/30 00:50:24;;;;;;;5.03;4.03;;;19.20;99.90;;;;;;6189656;23;20442;-71
2022/06/30 00:52:50;;;;;;;7.97;4.85;;;19.20;99.90;;;;;;6216129;23;20017;-71
2022/06/30 00:55:18;;;;;;;7.65;4.40;;;19.20;99.90;;;;;;6189435;23;20016;-71
2022/06/30 00:57:44;;;;;;;6.15;4.10;;;19.20;99.90;;;;;;6216202;23;20020;-70
2022/06/30 01:00:14;;;;;;;8.85;4.50;;;19.20;99.90;;;;;;6216241;23;20020;-70
2022/06/30 01:02:40;;;;;;;5.50;4.07;;;19.20;99.90;;;;;;6216113;23;20018;-73
2022/06/30 01:05:07;;;;;;;4.68;4.07;;;19.20;99.90;;;;;;6216073;23;20017;-70
2022/06/30 01:07:34;;;;;;;4.53;3.50;;;19.20;99.90;;;;;;6216043;23;20531;-72
2022/06/30 01:12:47;;;;;;;6.93;4.28;;;19.20;99.90;;;;;;6216019;23;20103;-72
2022/06/30 01:15:18;;;;;;;5.93;3.83;;;19.20;99.90;;;;;;6215988;23;20051;-72
2022/06/30 01:17:45;;;;;;;5.70;4.00;;;19.20;99.90;;;;;;6215929;23;20056;-71
2022/06/30 01:20:12;;;;;;;7.10;4.10;;;19.20;99.90;;;;;;6189228;23;20020;-71
2022/06/30 01:22:38;;;;;;;4.32;3.60;;;19.30;99.90;;;;;;6216015;23;20017;-71
2022/06/30 01:25:04;;;;;;;;;;;19.20;99.90;;;;;;6216519;23;20093;-70
2022/06/30 01:27:30;;;;;;;5.70;3.77;;;19.20;99.90;;;;;;6215910;23;19916;-71
2022/06/30 01:29:57;;;;;;;5.65;3.85;;;19.20;99.90;;;;;;6216027;23;20039;-70
2022/06/30 01:32:24;;;;;;;7.75;4.15;;;19.20;99.90;;;;;;6215813;23;20017;-71
2022/06/30 01:34:50;;;;;;;5.60;4.05;;;19.20;99.90;;;;;;6215797;23;20063;-70
2022/06/30 01:37:15;;;;;;;8.02;4.10;;;19.20;99.90;;;;;;6215744;23;20369;-71
2022/06/30 01:39:41;;;;;;;5.28;3.80;;;19.10;99.90;;;;;;6215879;23;20023;-71
2022/06/30 01:42:07;;;;;;;6.25;3.17;;;19.10;99.90;;;;;;6189380;23;20048;-72
2022/06/30 01:44:33;;;;;;;;;;;19.10;99.90;;;;;;6216381;23;20330;-71
2022/06/30 01:46:59;;;;;;;5.53;4.75;;;19.10;99.90;;;;;;6215956;23;19919;-71
2022/06/30 01:49:25;;;;;;;7.50;4.45;;;19.10;99.90;;;;;;6215846;23;20506;-71
2022/06/30 01:51:50;;;;;;;4.60;4.10;;;19.00;99.90;;;;;;6215784;23;20024;-70
2022/06/30 01:54:17;;;;;;;5.07;4.00;;;19.10;99.90;;;;;;6215692;23;20067;-71
2022/06/30 01:56:43;;;;;;;6.80;4.20;;;19.10;99.90;;;;;;6215889;23;20048;-72
2022/06/30 01:59:08;;;;;;;7.07;4.00;;;19.00;99.90;;;;;;6215908;23;20442;-72
2022/06/30 02:01:35;;;;;;;;;;;19.00;99.90;;;;;;6216374;23;20023;-71
2022/06/30 02:06:46;;;;;;;5.85;3.35;;;19.00;99.90;;;;;;6215704;23;20309;-71
2022/06/30 02:09:12;;;;;;;5.30;3.80;;;19.00;99.90;;;;;;6215831;23;20458;-71
2022/06/30 02:11:37;;;;;;;4.63;3.25;;;18.90;99.90;;;;;;6215802;23;20096;-70
2022/06/30 02:14:04;;;;;;;6.88;3.60;;;18.90;99.90;;;;;;6215727;23;20078;-70
2022/06/30 02:16:30;;;;;;;;;;;18.90;99.90;;;;;;6216301;23;20063;-71
2022/06/30 02:18:56;;;;;;;4.47;3.58;;;18.90;99.90;;;;;;6215660;23;20341;-70
2022/06/30 02:21:22;;;;;;;;;;;18.80;99.90;;;;;;6216286;23;20047;-70
2022/06/30 02:23:47;;;;;;;4.82;3.67;;;18.80;99.90;;;;;;6215729;23;20250;-71
2022/06/30 02:26:13;;;;;;;5.15;4.38;;;18.80;99.90;;;;;;6189106;23;20027;-70
2022/06/30 02:28:39;;;;;;;5.72;3.63;;;18.80;99.90;;;;;;6215759;23;20102;-71
2022/06/30 02:31:04;;;;;;;5.47;3.70;;;18.80;99.90;;;;;;6215815;23;20024;-71
2022/06/30 02:33:30;;;;;;;5.13;4.25;;;18.70;99.90;;;;;;6217404;23;20096;-71
2022/06/30 02:35:56;;;;;;;5.18;3.75;;;18.70;99.90;;;;;;6217488;23;20099;-70
2022/06/30 02:38:21;;;;;;;7.68;3.50;;;18.70;99.90;;;;;;6217553;23;20054;-71
2022/06/30 02:40:47;;;;;;;5.53;3.35;;;18.60;99.90;;;;;;6217502;23;20338;-71
2022/06/30 02:43:13;;;;;;;6.05;3.17;;;18.60;99.90;;;;;;6217509;23;20098;-70
2022/06/30 02:45:38;;;;;;;7.88;3.88;;;18.60;99.90;;;;;;6217483;23;20071;-72
2022/06/30 02:48:04;;;;;;;5.95;4.03;;;18.60;99.90;;;;;;6217143;23;20016;-72
2022/06/30 02:50:30;;;;;;;4.80;3.58;;;18.50;99.90;;;;;;6217467;23;20078;-72
2022/06/30 02:52:57;;;;;;;4.75;3.10;;;18.60;99.90;;;;;;6216966;23;20052;-71
2022/06/30 02:55:23;;;;;;;5.78;3.50;;;18.60;99.90;;;;;;6190786;23;20095;-71
2022/06/30 02:57:49;;;;;;;4.93;3.83;;;18.50;99.90;;;;;;6217325;23;20055;-70
2022/06/30 03:00:14;;;;;;;4.57;3.58;;;18.50;99.90;;;;;;6217325;23;20434;-71
2022/06/30 03:02:41;;;;;;;5.75;3.80;;;18.50;99.90;;;;;;6217127;23;20086;-70
2022/06/30 03:05:07;;;;;;;;;;;18.50;99.90;;;;;;6217671;23;20012;-71
2022/06/30 03:07:32;;;;;;;5.43;3.65;;;18.40;99.90;;;;;;6190753;23;19915;-72
2022/06/30 03:09:58;;;;;;;6.50;3.95;;;18.40;99.90;;;;;;6190685;23;20082;-71
2022/06/30 03:12:24;;;;;;;6.28;3.63;;;18.40;99.90;;;;;;6190652;23;20303;-71
2022/06/30 03:14:50;;;;;;;5.05;3.58;;;18.40;99.90;;;;;;6217005;23;20070;-71
2022/06/30 03:17:16;;;;;;;4.47;3.40;;;18.40;99.90;;;;;;6217142;23;20099;-71
2022/06/30 03:19:41;;;;;;;6.05;4.00;;;18.30;99.90;;;;;;6217083;23;20021;-72
2022/06/30 03:22:07;;;;;;;7.20;3.38;;;18.30;99.90;;;;;;6190418;23;20425;-71
2022/06/30 03:24:33;;;;;;;5.65;3.55;;;18.30;99.90;;;;;;6190463;23;20095;-71
2022/06/30 03:26:58;;;;;;;6.30;3.13;;;18.30;99.90;;;;;;6217420;23;20022;-71
2022/06/30 03:29:24;;;;;;;4.18;3.42;;;18.30;99.90;;;;;;6217050;23;20016;-72
2022/06/30 03:31:50;;;;;;;4.88;3.55;;;18.30;99.90;;;;;;6217024;23;20012;-71
2022/06/30 03:34:15;;;;;;;3.97;2.80;;;18.30;99.90;;;;;;6216462;23;20070;-72
2022/06/30 03:36:41;;;;;;;3.65;2.63;;;18.30;99.90;;;;;;6216979;23;20062;-72
2022/06/30 03:39:07;;;;;;;5.47;3.13;;;18.30;99.90;;;;;;6216814;23;20023;-70
2022/06/30 03:41:33;;;;;;;4.63;3.40;;;18.30;99.90;;;;;;6190729;23;20024;-70
2022/06/30 03:43:58;;;;;;;4.85;3.03;;;18.30;99.90;;;;;;6216514;23;20446;-71
2022/06/30 03:46:24;;;;;;;6.82;2.83;;;18.40;99.90;;;;;;6216954;23;20488;-71
2022/06/30 03:48:49;;;;;;;6.25;3.00;;;18.30;99.90;;;;;;6216796;23;20473;-71
2022/06/30 03:51:15;;;;;;;4.40;2.88;;;18.30;99.90;;;;;;6190313;23;20024;-71
2022/06/30 03:53:41;;;;;;;3.90;3.05;;;18.30;99.90;;;;;;6216908;23;20019;-71
2022/06/30 03:56:07;;;;;;;4.40;3.00;;;18.30;99.90;;;;;;6217192;23;20013;-71
2022/06/30 03:58:33;;;;;;;5.13;2.95;;;18.30;99.90;;;;;;6190246;23;20020;-71
2022/06/30 04:00:59;;;;;;;4.28;3.28;;;18.30;99.90;;;;;;6216724;23;20027;-71
2022/06/30 04:03:24;;;;;;;5.00;2.95;;;18.30;99.90;;;;;;6216702;23;20021;-71
2022/06/30 04:05:50;;;;;;;4.63;2.75;;;18.30;99.90;;;;;;6216745;23;20092;-72
2022/06/30 04:08:16;;;;;;;7.20;3.03;;;18.30;99.90;;;;;;6216684;23;20119;-71
2022/06/30 04:10:42;;;;;;;4.15;3.08;;;18.30;99.90;;;;;;6216286;23;20074;-71
2022/06/30 04:13:08;;;;;;;5.88;3.28;;;18.30;99.90;;;;;;6190118;23;20024;-71
2022/06/30 04:15:34;;;;;;;7.22;3.30;;;18.30;99.90;;;;;;6216524;23;20353;-71
2022/06/30 04:17:59;;;;;;;4.15;2.58;;;18.30;99.90;;;;;;6216520;23;20021;-72
2022/06/30 04:20:25;;;;;;;5.45;3.25;;;18.30;99.90;;;;;;6216603;23;20074;-71
2022/06/30 04:22:53;;;;;;;8.07;3.05;;;18.30;99.90;;;;;;6190012;23;20012;-72
2022/06/30 04:25:19;;;;;;;4.35;3.17;;;18.30;99.90;;;;;;6216483;23;20012;-70
2022/06/30 04:27:47;;;;;;;3.80;2.67;;;18.30;99.90;;;;;;6216557;23;20135;-71
2022/06/30 04:30:14;;;;;;;5.72;2.78;;;18.30;99.90;;;;;;6216472;23;20524;-71
2022/06/30 04:32:40;;;;;;;4.25;3.15;;;18.30;99.90;;;;;;6216415;23;20402;-70
2022/06/30 04:35:06;;;;;;;;;;;18.30;99.90;;;;;;6190081;23;20473;-71
2022/06/30 04:37:32;;;;;;;5.47;2.90;;;18.40;99.90;;;;;;6189897;23;19922;-70
2022/06/30 04:42:42;;;;;;;4.65;2.83;;;18.40;99.90;;;;;;6216342;23;20350;-70
2022/06/30 04:45:08;;;;;;;4.53;2.92;;;18.40;99.90;;;;;;6216400;23;20091;-71
2022/06/30 04:47:35;;;;;;;;;;;18.40;99.90;;;;;;6216830;23;20051;-71
2022/06/30 04:50:01;;;;;;;6.65;2.95;;;18.40;99.90;;;;;;6216255;23;19951;-70
2022/06/30 04:52:27;;;;;;;4.38;2.67;;;18.50;99.90;;;;;;6216098;23;20028;-71
2022/06/30 04:54:53;;;;;;;4.55;3.00;;;18.50;99.90;;;;;;6216177;23;20012;-71
2022/06/30 04:57:18;;;;;;;4.80;2.70;;;18.50;99.90;;;;;;6216295;23;20092;-71
2022/06/30 04:59:44;;;;;;;4.22;3.10;;;18.50;99.90;;;;;;6216212;23;20091;-71
2022/06/30 05:02:10;;;;;;;4.97;3.30;;;18.60;99.90;;;;;;6189501;23;20102;-71
2022/06/30 05:04:35;;;;;;;4.70;2.50;;;18.60;99.90;;;;;;6216021;23;20108;-72
2022/06/30 05:07:01;;;;;;;5.78;2.88;;;18.60;99.90;;;;;;6189732;23;20074;-71
2022/06/30 05:09:27;;;;;;;6.18;3.10;;;18.60;99.90;;;;;;6189097;23;20051;-72
2022/06/30 05:11:52;;;;;;;5.05;2.70;;;18.70;99.90;;;;;;6216188;23;20094;-72
2022/06/30 05:14:18;;;;;;;5.15;2.78;;;18.70;99.90;;;;;;6216049;23;20008;-72
2022/06/30 05:16:44;;;;;;;3.40;2.60;;;18.70;99.90;;;;;;6216067;23;20023;-70
2022/06/30 05:19:09;;;;;;;3.63;2.60;;;18.80;99.90;;;;;;6215988;23;20016;-72
2022/06/30 05:21:36;;;;;;;8.80;3.42;;;18.80;99.90;;;;;;6215999;23;20028;-71
2022/06/30 05:26:46;;;;;;;3.50;2.60;;;18.90;99.90;;;;;;6189126;23;20128;-71
2022/06/30 05:29:12;;;;;;;3.47;2.45;;;18.90;99.90;;;;;;6189383;23;20461;-72
2022/06/30 05:31:38;;;;;;;6.20;2.72;;;19.00;99.90;;;;;;6216083;23;20446;-72
2022/06/30 05:34:03;;;;;;;9.45;3.05;;;19.00;99.90;;;;;;6215831;23;20438;-71
2022/06/30 05:36:29;;;;;;;4.55;2.67;;;19.10;99.90;;;;;;6215851;23;20405;-70
2022/06/30 05:38:54;;;;;;;4.78;2.42;;;19.10;99.90;;;;;;6215956;23;20445;-72
2022/06/30 05:41:20;;;;;;;4.07;2.92;;;19.10;99.90;;;;;;6189471;23;20449;-71
2022/06/30 05:43:46;;;;;;;7.40;2.67;;;19.10;99.90;;;;;;6215961;23;20499;-71
2022/06/30 05:46:12;;;;;;;3.50;2.47;;;19.20;99.90;;;;;;6189472;23;20472;-72
2022/06/30 05:48:38;;;;;;;5.35;2.88;;;19.20;99.90;;;;;;6189185;23;20027;-71
2022/06/30 05:51:03;;;;;;;5.57;2.90;;;19.20;99.90;;;;;;6215947;23;20020;-70
2022/06/30 05:53:29;;;;;;;4.38;2.70;;;19.30;99.90;;;;;;6188867;23;20024;-71
2022/06/30 05:55:55;;;;;;;6.45;3.05;;;19.30;99.90;;;;;;6189205;23;20017;-71
2022/06/30 05:58:20;;;;;;;7.05;3.15;;;19.30;99.90;;;;;;6189345;23;20083;-71
2022/06/30 06:00:46;;;;;;;4.57;2.55;;;19.30;99.90;;;;;;6189338;23;20063;-71
2022/06/30 06:03:12;;;;;;;3.75;2.72;;;19.40;99.90;;;;;;6215740;23;20016;-73
2022/06/30 06:05:37;;;;;;;4.68;2.42;;;19.50;99.90;;;;;;6189392;23;20086;-71
2022/06/30 06:08:05;;;;;;;3.92;2.42;;;19.50;99.90;;;;;;6217613;23;20042;-70
2022/06/30 06:10:30;;;;;;;4.07;2.67;;;19.50;99.90;;;;;;6216260;23;20016;-71
2022/06/30 06:12:56;;;;;;;5.35;3.22;;;19.60;99.90;;;;;;6217602;23;20307;-71
2022/06/30 06:15:22;;;;;;;8.07;2.60;;;19.70;99.90;;;;;;6191015;23;20016;-72
2022/06/30 06:17:48;;;;;;;8.77;2.78;;;19.70;99.90;;;;;;6164843;23;20021;-71
2022/06/30 06:20:16;;;;;;;5.60;3.13;;;19.80;99.90;;;;;;6217371;23;20118;-71
2022/06/30 06:22:42;;;;;;;3.85;2.50;;;19.80;99.90;;;;;;6189786;23;20065;-72
2022/06/30 06:25:09;;;;;;;5.15;3.47;;;19.90;99.90;;;;;;6217580;23;20022;-71
2022/06/30 06:27:35;;;;;;;4.93;2.90;;;20.00;99.90;;;;;;6217649;23;20016;-72
2022/06/30 06:30:03;;;;;;;6.43;2.80;;;20.00;99.90;;;;;;6217596;23;20016;-70
2022/06/30 06:32:30;;;;;;;6.43;3.15;;;20.10;99.90;;;;;;6217431;23;20016;-70
2022/06/30 06:34:56;;;;;;;4.22;3.38;;;20.20;99.90;;;;;;6190574;23;20092;-71
2022/06/30 06:37:22;;;;;;;;;;;20.20;99.90;;;;;;6191339;23;20447;-71
2022/06/30 06:39:47;;;;;;;4.45;3.05;;;20.30;99.90;;;;;;6190344;23;19943;-73
2022/06/30 06:42:13;;;;;;;6.25;2.80;;;20.30;99.90;;;;;;6191017;23;20019;-71
2022/06/30 06:44:39;;;;;;;;;;;20.40;99.90;;;;;;6217983;23;20066;-71
2022/06/30 06:47:05;;;;;;;4.88;3.03;;;20.50;99.90;;;;;;6190490;23;19916;-71
2022/06/30 06:49:30;;;;;;;3.83;2.92;;;20.50;99.90;;;;;;6217358;23;20016;-71
2022/06/30 06:51:57;;;;;;;5.50;3.85;;;20.60;99.90;;;;;;6190921;23;20520;-72
2022/06/30 06:54:23;;;;;;;5.22;3.55;;;20.60;99.90;;;;;;6217322;23;20009;-71
2022/06/30 06:56:48;;;;;;;5.00;3.38;;;20.70;99.90;;;;;;6217372;23;20024;-71
2022/06/30 06:59:14;;;;;;;;;;;20.80;99.90;;;;;;6217736;23;20462;-71
2022/06/30 07:01:41;;;;;;;5.80;3.75;;;20.80;99.90;;;;;;6217278;23;19985;-71
2022/06/30 07:04:07;;;;;;;4.57;3.00;;;20.80;99.90;;;;;;6216692;23;20020;-71
2022/06/30 07:06:33;;;;;;;;;;;20.90;99.90;;;;;;6191215;23;20020;-70
2022/06/30 07:08:59;;;;;;;6.55;3.10;;;20.90;99.90;;;;;;6190481;23;20393;-71
2022/06/30 07:11:25;;;;;;;6.57;3.40;;;21.10;99.90;;;;;;6217167;23;20020;-71
2022/06/30 07:13:51;;;;;;;4.43;3.13;;;21.10;99.90;;;;;;6217124;23;20017;-72
2022/06/30 07:16:16;;;;;;;;;;;21.10;99.90;;;;;;6217459;23;20017;-71
2022/06/30 07:18:42;;;;;;;5.25;3.28;;;21.20;99.90;;;;;;6216516;23;19922;-72
2022/06/30 07:21:07;;;;;;;;;;;21.20;99.90;;;;;;6217678;23;20311;-72
2022/06/30 07:23:33;;;;;;;8.63;3.35;;;21.30;99.90;;;;;;6216673;23;19964;-72
2022/06/30 07:25:59;;;;;;;;;;;21.40;99.90;;;;;;6217525;23;20016;-72
2022/06/30 07:28:25;;;;;;;5.30;3.38;;;21.40;99.90;;;;;;6216659;23;19915;-71
2022/06/30 07:30:52;;;;;;;10.40;3.85;;;21.50;99.90;;;;;;6190510;23;20436;-71
2022/06/30 07:33:33;;;;;;;5.95;4.05;;;21.60;99.90;;;;;;6216437;23;20019;-72
2022/06/30 07:35:58;;;;;;;5.93;4.05;;;21.60;99.90;;;;;;6190253;23;20074;-70
2022/06/30 07:38:24;;;;;;;;;;;21.70;99.90;;;;;;6217301;23;20017;-71
2022/06/30 07:40:50;;;;;;;5.72;4.05;;;21.80;99.90;;;;;;6216809;23;20046;-71
2022/06/30 07:43:15;;;;;;;;;;;21.90;99.90;;;;;;6217430;23;20024;-72
2022/06/30 07:45:41;;;;;;;5.95;3.90;;;22.00;99.90;;;;;;6216901;23;19983;-71
2022/06/30 07:48:06;;;;;;;;;;;22.00;99.90;;;;;;6217419;23;20035;-72
2022/06/30 07:50:32;;;;;;;7.55;4.40;;;22.10;99.90;;;;;;6190320;23;20388;-71
2022/06/30 07:52:58;;;;;;;;;;;22.10;99.90;;;;;;6217411;23;20047;-71
2022/06/30 07:55:23;;;;;;;7.10;4.55;;;22.20;99.90;;;;;;6190169;23;19915;-71
2022/06/30 07:57:49;;;;;;;;;;;22.30;99.90;;;;;;6217241;23;20326;-71
2022/06/30 08:00:15;;;;;;;6.18;4.10;;;22.40;99.90;;;;;;6216736;23;19916;-71
2022/06/30 08:02:41;;;;;;;6.53;5.00;;;22.40;99.90;;;;;;6216646;23;20091;-71
2022/06/30 08:05:07;;;;;;;;;;;22.40;99.90;;;;;;6217203;23;20019;-71
2022/06/30 08:07:34;;;;;;;8.02;5.85;;;22.50;99.90;;;;;;6216670;23;19916;-71
2022/06/30 08:10:00;;;;;;;8.57;5.65;;;22.50;99.90;;;;;;6216504;23;20012;-71
2022/06/30 08:12:26;;;;;;;9.02;6.28;;;22.60;99.90;;;;;;6216518;23;20039;-72
2022/06/30 08:14:52;;;;;;;10.70;6.47;;;22.70;99.90;;;;;;6216477;23;20048;-71
2022/06/30 08:17:18;;;;;;;15.77;6.50;;;22.70;99.90;;;;;;6216613;23;20025;-71
2022/06/30 08:19:43;;;;;;;;;;;22.80;99.90;;;;;;6216949;23;20020;-71
2022/06/30 08:22:09;;;;;;;8.48;5.22;;;22.80;99.90;;;;;;6216454;23;19958;-71
2022/06/30 08:24:35;;;;;;;;;;;22.90;99.90;;;;;;6217014;23;20091;-71
2022/06/30 08:27:02;;;;;;;9.13;6.60;;;23.00;99.90;;;;;;6189953;23;19991;-72
2022/06/30 08:29:32;;;;;;;9.82;6.05;;;23.00;99.90;;;;;;6216281;23;20484;-72
2022/06/30 08:31:59;;;;;;;7.95;6.22;;;23.10;99.90;;;;;;6216219;23;20051;-72
2022/06/30 08:34:24;;;;;;;10.70;7.47;;;23.10;99.90;;;;;;6215796;23;20013;-72
2022/06/30 08:36:50;;;;;;;8.40;6.35;;;23.10;99.90;;;;;;6216342;23;20024;-72
2022/06/30 08:42:03;;;;;;;9.43;6.55;;;23.20;99.90;;;;;;6216352;23;19922;-72
2022/06/30 08:44:36;;;;;;;9.57;6.07;;;23.30;99.90;;;;;;6216428;23;20012;-71
2022/06/30 08:47:04;;;;;;;7.85;5.22;;;23.30;99.90;;;;;;6216308;23;20027;-71
2022/06/30 08:49:31;;;;;;;7.75;6.18;;;23.40;99.90;;;;;;6189467;23;20013;-70
2022/06/30 08:51:58;;;;;;;8.00;5.93;;;23.40;99.90;;;;;;6214743;23;20449;-72
2022/06/30 08:54:29;;;;;;;9.27;6.50;;;23.50;99.90;;;;;;6215470;23;20024;-71
2022/06/30 08:56:59;;;;;;;9.57;5.22;;;23.60;99.90;;;;;;6216001;23;20338;-71
2022/06/30 08:59:25;;;;;;;11.10;6.60;;;23.60;99.90;;;;;;6215860;23;20020;-71
2022/06/30 09:01:54;;;;;;;9.32;6.63;;;23.60;99.90;;;;;;6189399;23;20086;-72
2022/06/30 09:04:21;;;;;;;9.30;5.50;;;23.70;99.90;;;;;;6215795;23;20013;-72
2022/06/30 09:06:46;;;;;;;10.40;6.80;;;23.70;99.90;;;;;;6188228;23;20032;-72
2022/06/30 09:09:12;;;;;;;10.32;6.03;;;23.80;99.90;;;;;;6188903;23;20028;-71
2022/06/30 09:11:56;;;;;;;7.22;5.88;;;23.80;99.90;;;;;;6215800;23;20342;-72
2022/06/30 09:14:38;;;;;;;10.63;6.00;;;23.80;99.90;;;;;;6215801;23;20081;-71
2022/06/30 09:17:21;;;;;;;7.43;5.43;;;23.90;99.90;;;;;;6215606;23;20024;-71
2022/06/30 09:20:00;;;;;;;10.38;6.68;;;23.90;99.90;;;;;;6215612;23;20032;-72
2022/06/30 09:22:36;;;;;;;9.75;6.45;;;24.00;99.90;;;;;;6215419;23;20395;-71
2022/06/30 09:25:05;;;;;;;8.90;6.10;;;24.00;99.90;;;;;;6215786;23;20464;-72
2022/06/30 09:27:39;;;;;;;11.40;6.63;;;24.10;99.90;;;;;;6215777;23;20013;-70
2022/06/30 09:30:10;;;;;;;9.82;6.00;;;24.10;99.90;;;;;;6215847;23;20027;-71
2022/06/30 09:32:58;;;;;;;11.02;6.57;;;24.10;99.90;;;;;;6215401;23;20438;-71
2022/06/30 09:35:26;;;;;;;10.68;6.70;;;24.20;99.90;;;;;;6214994;23;20089;-72
2022/06/30 09:38:08;;;;;;;9.73;6.22;;;24.30;99.90;;;;;;6215538;23;20100;-71
2022/06/30 09:40:36;;;;;;;9.85;5.68;;;24.30;99.90;;;;;;6188548;23;20040;-71
2022/06/30 09:43:06;;;;;;;9.80;5.85;;;24.40;99.90;;;;;;6215410;23;20017;-71
2022/06/30 09:45:43;;;;;;;9.05;5.68;;;24.40;99.90;;;;;;6188981;23;20021;-71
2022/06/30 09:48:11;;;;;;;7.95;5.85;;;24.50;99.90;;;;;;6215529;23;20076;-72
2022/06/30 09:50:39;;;;;;;8.07;5.70;;;24.50;99.90;;;;;;6188754;23;20024;-71
2022/06/30 09:53:12;;;;;;;9.23;6.20;;;24.30;99.90;;;;;;6214442;23;20020;-72
2022/06/30 09:55:43;;;;;;;7.43;5.75;;;24.60;99.90;;;;;;6189436;23;20016;-72
2022/06/30 09:58:12;;;;;;;9.40;5.55;;;24.60;99.90;;;;;;6215427;23;20350;-71
2022/06/30 10:00:46;;;;;;;8.43;5.38;;;24.60;99.90;;;;;;6215549;23;20024;-71
2022/06/30 10:03:16;;;;;;;8.70;5.18;;;24.70;99.90;;;;;;6188836;23;20052;-72
2022/06/30 10:05:48;;;;;;;7.22;5.97;;;24.70;99.90;;;;;;6188830;23;20323;-71
2022/06/30 10:08:19;;;;;;;7.07;5.47;;;24.70;99.90;;;;;;6214996;23;20055;-71
2022/06/30 10:10:47;;;;;;;7.63;5.20;;;24.80;99.90;;;;;;6215188;23;20100;-71
2022/06/30 10:13:17;;;;;;;6.47;5.25;;;24.80;99.90;;;;;;6188868;23;20407;-72
2022/06/30 10:15:56;;;;;;;8.35;6.28;;;24.80;99.90;;;;;;6215008;23;20016;-72
2022/06/30 10:18:29;;;;;;;6.32;5.55;;;24.80;99.90;;;;;;6214927;23;20524;-72
2022/06/30 10:20:58;;;;;;;8.30;5.80;;;24.80;99.90;;;;;;6215158;23;20028;-72
2022/06/30 10:23:27;;;;;;;9.90;7.18;;;24.90;99.90;;;;;;6215402;23;20033;-72
2022/06/30 10:25:55;;;;;;;6.78;5.13;;;24.90;99.90;;;;;;6214827;23;20017;-72
2022/06/30 10:28:24;;;;;;;7.40;5.93;;;24.90;99.90;;;;;;6214777;23;20021;-72
2022/06/30 10:31:10;;;;;;;9.85;5.50;;;24.90;99.90;;;;;;6188795;23;20079;-73
2022/06/30 10:34:00;;;;;;;6.78;5.35;;;24.90;99.90;;;;;;6188317;23;20046;-71
2022/06/30 10:36:40;;;;;;;7.50;5.75;;;24.90;99.90;;;;;;6215095;23;20035;-73
2022/06/30 10:39:32;;;;;;;9.38;5.82;;;24.90;99.90;;;;;;6188561;23;20020;-72
2022/06/30 10:42:00;;;;;;;8.15;5.60;;;24.90;99.90;;;;;;6214918;23;20334;-71
2022/06/30 10:44:29;;;;;;;7.88;5.85;;;25.00;99.90;;;;;;6214641;23;20021;-71
2022/06/30 10:46:56;;;;;;;15.95;6.78;;;24.90;99.90;;;;;;6188593;23;20027;-73
2022/06/30 10:49:25;;;;;;;9.18;6.50;;;25.00;99.90;;;;;;6214682;23;20027;-71
2022/06/30 10:52:19;;;;;;;7.50;5.97;;;25.00;99.90;;;;;;6214886;23;20023;-73
2022/06/30 10:54:47;;;;;;;7.90;5.55;;;25.10;99.90;;;;;;6199333;23;20342;-71
2022/06/30 10:57:18;;;;;;;6.57;5.57;;;25.10;99.90;;;;;;6190333;23;20020;-72
2022/06/30 10:59:46;;;;;;;9.05;5.70;;;25.00;99.90;;;;;;6216520;23;20051;-71
2022/06/30 11:02:15;;;;;;;5.72;5.15;;;25.10;99.90;;;;;;6190049;23;20390;-72
2022/06/30 11:04:45;;;;;;;5.82;4.90;;;25.10;99.90;;;;;;6190329;23;20021;-71
2022/06/30 11:07:23;;;;;;;7.32;5.63;;;25.10;99.90;;;;;;6216833;23;20051;-72
2022/06/30 11:09:51;;;;;;;6.85;5.30;;;25.10;99.90;;;;;;6216838;23;20021;-71
2022/06/30 11:12:41;;;;;;;20.77;6.28;;;25.20;99.90;;;;;;6216792;23;20024;-71
2022/06/30 11:15:08;;;;;;;8.93;5.60;;;25.20;99.90;;;;;;6216587;23;20024;-72
2022/06/30 11:17:39;;;;;;;7.47;5.72;;;25.20;99.90;;;;;;6216988;23;20449;-73
2022/06/30 11:20:12;;;;;;;8.05;5.40;;;25.20;99.90;;;;;;6216831;23;20024;-71
2022/06/30 11:22:39;;;;;;;7.13;5.93;;;25.30;99.90;;;;;;6216888;23;20020;-73
2022/06/30 11:25:10;;;;;;;10.82;6.38;;;25.30;99.90;;;;;;6216865;23;20013;-71
2022/06/30 11:27:38;;;;;;;6.80;5.20;;;25.30;99.90;;;;;;6216433;23;20446;-73
2022/06/30 11:30:09;;;;;;;7.53;6.43;;;25.30;99.90;;;;;;6216757;23;20019;-71
2022/06/30 11:32:36;;;;;;;8.05;5.22;;;25.40;99.90;;;;;;6216502;23;20489;-73
2022/06/30 11:35:02;;;;;;;6.50;5.18;;;25.40;99.90;;;;;;6216725;23;20070;-73
2022/06/30 11:37:30;;;;;;;7.47;5.35;;;25.30;99.90;;;;;;6216597;23;20472;-72
2022/06/30 11:40:06;;;;;;;7.28;4.95;;;25.40;99.90;;;;;;6216562;23;20024;-73
2022/06/30 11:42:33;;;;;;;7.23;5.43;;;25.40;99.90;;;;;;6216622;23;20035;-73
2022/06/30 11:44:59;;;;;;;7.65;5.30;;;25.50;99.90;;;;;;6216497;23;20267;-72
2022/06/30 11:47:28;;;;;;;6.30;5.20;;;25.50;99.90;;;;;;6216437;23;20020;-72
2022/06/30 11:49:53;;;;;;;6.00;4.85;;;25.50;99.90;;;;;;6216533;23;20078;-71
2022/06/30 11:52:27;;;;;;;5.95;4.45;;;25.50;99.90;;;;;;6216589;23;20342;-73
2022/06/30 11:54:54;;;;;;;6.80;4.97;;;25.50;99.90;;;;;;6216631;23;20048;-71
2022/06/30 11:57:25;;;;;;;6.20;5.20;;;25.50;99.90;;;;;;6216561;23;20025;-71
2022/06/30 11:59:54;;;;;;;6.15;5.03;;;25.50;99.90;;;;;;6216472;23;20016;-72
2022/06/30 12:02:20;;;;;;;5.88;4.95;;;25.50;99.90;;;;;;6216418;23;20016;-72
2022/06/30 12:04:52;;;;;;;8.38;4.60;;;25.50;99.90;;;;;;6216173;23;20017;-72
2022/06/30 12:07:18;;;;;;;7.18;5.40;;;25.50;99.90;;;;;;6189874;23;20016;-73
2022/06/30 12:09:45;;;;;;;7.43;4.50;;;25.50;99.90;;;;;;6216364;23;20099;-72
2022/06/30 12:12:17;;;;;;;6.70;4.03;;;25.50;99.90;;;;;;6216394;23;20052;-71
2022/06/30 12:14:44;;;;;;;6.60;5.40;;;25.50;99.90;;;;;;6216548;23;20024;-73
2022/06/30 12:17:11;;;;;;;6.18;4.68;;;25.50;99.90;;;;;;6216219;23;20146;-72
2022/06/30 12:19:38;;;;;;;7.10;4.15;;;25.60;99.90;;;;;;6214421;23;20346;-72
2022/06/30 12:22:07;;;;;;;8.40;4.60;;;25.60;99.90;;;;;;6189782;23;20027;-73
2022/06/30 12:24:35;;;;;;;6.03;4.57;;;25.60;99.90;;;;;;6216215;23;20017;-73
2022/06/30 12:27:01;;;;;;;5.63;4.07;;;25.60;99.90;;;;;;6188655;23;20021;-72
2022/06/30 12:29:28;;;;;;;4.95;4.13;;;25.60;99.90;;;;;;6189604;23;20056;-73
2022/06/30 12:32:10;;;;;;;5.53;3.63;;;25.70;99.90;;;;;;6216204;23;20086;-74
2022/06/30 12:34:54;;;;;;;5.70;4.75;;;25.70;99.90;;;;;;6215457;23;20013;-72
2022/06/30 12:37:42;;;;;;;6.07;3.78;;;25.80;99.90;;;;;;6189437;23;20013;-73
2022/06/30 12:40:09;;;;;;;5.93;3.40;;;25.80;99.90;;;;;;6215937;23;20087;-72
2022/06/30 12:42:47;;;;;;;3.85;3.25;;;25.80;99.90;;;;;;6215658;23;20323;-72
2022/06/30 12:45:45;;;;;;;5.15;4.00;;;25.80;99.90;;;;;;6215986;23;20013;-73
2022/06/30 12:48:32;;;;;;;6.05;4.20;;;25.90;99.90;;;;;;6216009;23;20024;-72
2022/06/30 12:50:57;;;;;;;;;;;25.90;99.90;;;;;;6188567;23;20017;-72
2022/06/30 12:53:25;;;;;;;6.67;3.40;;;25.90;99.90;;;;;;6216372;23;19969;-73
2022/06/30 12:56:01;;;;;;;4.68;3.55;;;25.90;99.90;;;;;;6216287;23;20015;-73
2022/06/30 12:58:41;;;;;;;;;;;25.90;99.90;;;;;;6216438;23;20021;-73
2022/06/30 13:01:08;;;;;;;3.67;2.92;;;25.90;99.90;;;;;;6189409;23;20329;-73
2022/06/30 13:03:52;;;;;;;6.53;4.03;;;25.90;99.90;;;;;;6189068;23;20017;-72
2022/06/30 13:06:20;;;;;;;6.03;4.45;;;26.00;99.90;;;;;;6215739;23;20445;-72
2022/06/30 13:08:46;;;;;;;4.65;3.72;;;26.00;99.90;;;;;;6215866;23;20016;-73
2022/06/30 13:11:17;;;;;;;4.82;3.83;;;26.00;99.90;;;;;;6215845;23;20028;-73